Toquerville, Utah
Current Conditions -  °F | °C
As of 6:15 PM on Tuesday 21 Oct 2014 (Local Time) from KSGU Reporting Station
Clear Clear  
Wind Chill: 81°   Ceiling: Unl
Heat Index: 81°   Visibility: 10mi
Dew Point: 41°   Wind: 10mph
Humidity: 24%   Direction: 270°W
Pressure: 29.86"   Gusts: NA
Location:  37.25°N, 113.28°W
Report Text: KSGU 220015Z AUTO 27009KT 10SM CLR 27/05 A2986 RMK AO1
Loading
Personal Weather Stations






























Interactive Weather Map New forecast layout! Learn more

10-Day Weather Forecast

Advertisements
Track Severe Weather on mobile